Time;durP1;ratioP1;P1;durP2;ratioP2;P2;SDS_P1;SDS_P2;PMS_P1;PMS_P2;Temp;Humidity;BMP_temperature;BMP_pressure;BME280_temperature;BME280_humidity;BME280_pressure;Samples;Min_cycle;Max_cycle;Signal;HPM_P1;HPM_P2
2022/02/28 00:01:22;;;;;;;17.05;7.82;;;1.50;99.90;;;;;;5075552;28;20060;-89
2022/02/28 00:03:53;;;;;;;20.67;8.27;;;1.40;99.90;;;;;;5059469;28;20032;-91
2022/02/28 00:06:19;;;;;;;17.10;7.57;;;1.40;99.90;;;;;;5056512;28;20108;-91
2022/02/28 00:08:45;;;;;;;17.63;7.22;;;1.30;99.90;;;;;;5060805;28;20057;-91
2022/02/28 00:11:11;;;;;;;16.52;8.43;;;1.30;99.90;;;;;;5060650;28;20528;-91
2022/02/28 00:13:37;;;;;;;16.38;8.27;;;1.30;99.90;;;;;;5061306;28;20032;-91
2022/02/28 00:16:02;;;;;;;23.98;8.68;;;1.30;99.90;;;;;;5042074;28;20040;-90
2022/02/28 00:18:28;;;;;;;18.02;9.10;;;1.20;99.90;;;;;;5043775;28;20023;-90
2022/02/28 00:20:54;;;;;;;15.23;8.00;;;1.20;99.90;;;;;;5043926;28;20054;-90
2022/02/28 00:23:20;;;;;;;14.63;7.85;;;1.20;99.90;;;;;;5021207;28;20488;-90
2022/02/28 00:25:45;;;;;;;18.50;8.43;;;1.10;99.90;;;;;;5077112;28;20029;-90
2022/02/28 00:28:11;;;;;;;13.57;7.75;;;1.10;99.90;;;;;;5056694;28;20040;-90
2022/02/28 00:30:38;;;;;;;21.20;9.38;;;1.00;99.90;;;;;;5054581;28;20033;-90
2022/02/28 00:33:04;;;;;;;17.67;8.45;;;1.00;99.90;;;;;;5057367;28;20028;-91
2022/02/28 00:35:30;;;;;;;16.75;8.45;;;0.90;99.90;;;;;;5059591;28;20115;-91
2022/02/28 00:37:56;;;;;;;20.88;9.02;;;0.90;99.90;;;;;;5054813;28;20052;-91
2022/02/28 00:40:22;;;;;;;18.17;7.85;;;0.90;99.90;;;;;;5061716;28;20186;-91
2022/02/28 00:42:48;;;;;;;15.55;8.55;;;0.90;99.90;;;;;;5068827;28;20029;-91
2022/02/28 00:45:14;;;;;;;16.73;8.73;;;0.80;99.90;;;;;;5020311;28;20029;-90
2022/02/28 00:47:43;;;;;;;19.02;8.73;;;0.80;99.90;;;;;;5055185;28;20048;-90
2022/02/28 00:50:11;;;;;;;20.38;8.80;;;0.90;99.90;;;;;;5058090;28;20133;-91
2022/02/28 00:52:36;;;;;;;16.77;8.35;;;0.90;99.90;;;;;;5043008;28;20444;-91
2022/02/28 01:05:31;;;;;;;16.00;8.20;;;0.70;99.90;;;;;;4920724;29;19927;-85
2022/02/28 01:07:57;;;;;;;15.15;8.93;;;0.70;99.90;;;;;;4914474;29;20075;-84
2022/02/28 01:10:23;;;;;;;18.35;8.60;;;0.80;99.90;;;;;;4917271;29;20517;-85
2022/02/28 01:12:51;;;;;;;17.15;8.77;;;0.60;99.90;;;;;;4917348;29;20020;-86
2022/02/28 01:15:18;;;;;;;17.77;9.00;;;0.60;99.90;;;;;;4917226;29;20020;-86
2022/02/28 01:17:46;;;;;;;18.30;9.23;;;0.70;99.90;;;;;;4886352;29;20081;-85
2022/02/28 01:20:13;;;;;;;18.60;9.00;;;0.70;99.90;;;;;;4918211;29;20036;-85
2022/02/28 01:22:39;;;;;;;20.48;9.18;;;0.70;99.90;;;;;;4917173;29;20020;-85
2022/02/28 01:25:09;;;;;;;20.05;8.85;;;0.60;99.90;;;;;;4918199;29;20024;-86
2022/02/28 01:27:34;;;;;;;15.52;8.18;;;0.70;99.90;;;;;;4917261;29;20075;-85
2022/02/28 01:30:00;;;;;;;21.60;9.93;;;0.70;99.90;;;;;;4918297;29;20097;-85
2022/02/28 01:32:26;;;;;;;17.52;8.75;;;0.80;99.90;;;;;;4901487;29;20036;-85
2022/02/28 01:34:52;;;;;;;20.65;9.30;;;0.80;99.90;;;;;;4917210;29;20033;-86
2022/02/28 01:37:18;;;;;;;18.45;9.82;;;0.80;99.90;;;;;;4917104;29;20032;-85
2022/02/28 01:39:46;;;;;;;19.55;9.07;;;0.80;99.90;;;;;;4919561;29;20083;-86
2022/02/28 01:42:14;;;;;;;19.48;9.30;;;0.90;99.90;;;;;;4928857;29;20028;-86
2022/02/28 01:44:40;;;;;;;21.05;9.65;;;0.80;99.90;;;;;;4929280;29;20525;-86
2022/02/28 01:47:06;;;;;;;19.38;9.60;;;0.80;99.90;;;;;;4929347;29;20028;-86
2022/02/28 01:49:32;;;;;;;16.63;9.25;;;0.80;99.90;;;;;;4928826;29;20052;-85
2022/02/28 01:52:00;;;;;;;19.48;10.15;;;0.80;99.90;;;;;;4930481;29;20028;-85
2022/02/28 01:54:26;;;;;;;20.92;9.77;;;0.80;99.90;;;;;;4928832;29;20087;-85
2022/02/28 01:56:52;;;;;;;18.58;9.35;;;0.70;99.90;;;;;;4897663;29;20039;-85
2022/02/28 01:59:17;;;;;;;20.60;9.68;;;0.80;99.90;;;;;;4928381;29;20036;-85
2022/02/28 02:01:43;;;;;;;22.25;9.55;;;0.80;99.90;;;;;;4929765;29;20074;-85
2022/02/28 02:04:09;;;;;;;20.05;9.38;;;0.80;99.90;;;;;;4928341;29;20127;-85
2022/02/28 02:06:35;;;;;;;20.38;9.13;;;0.70;99.90;;;;;;4927995;29;20096;-85
2022/02/28 02:09:02;;;;;;;18.90;9.20;;;0.70;99.90;;;;;;4920266;29;20033;-85
2022/02/28 02:11:28;;;;;;;19.65;9.02;;;0.70;99.90;;;;;;4916966;29;20377;-86
2022/02/28 02:13:55;;;;;;;17.67;9.43;;;0.70;99.90;;;;;;4916849;29;20035;-85
2022/02/28 02:16:21;;;;;;;20.85;10.05;;;0.70;99.90;;;;;;4916716;29;20540;-85
2022/02/28 02:18:46;;;;;;;16.10;9.15;;;0.60;99.90;;;;;;4916992;29;20056;-85
2022/02/28 02:21:12;;;;;;;18.65;9.85;;;0.60;99.90;;;;;;4916935;29;20229;-86
2022/02/28 02:23:42;;;;;;;21.00;9.88;;;0.70;99.90;;;;;;4918176;29;20099;-86
2022/02/28 02:26:14;;;;;;;15.32;8.63;;;0.70;99.90;;;;;;4886077;29;20036;-86
2022/02/28 02:28:48;;;;;;;22.42;10.23;;;0.60;99.90;;;;;;4917627;29;20032;-86
2022/02/28 02:31:14;;;;;;;17.20;9.05;;;0.50;99.90;;;;;;4920225;29;20472;-86
2022/02/28 02:33:43;;;;;;;20.83;9.77;;;0.50;99.90;;;;;;4916436;29;20024;-86
2022/02/28 02:36:09;;;;;;;17.95;8.52;;;0.40;99.90;;;;;;4916740;29;20406;-86
2022/02/28 02:38:37;;;;;;;17.67;9.18;;;0.50;99.90;;;;;;4917542;29;20020;-86
2022/02/28 02:41:05;;;;;;;16.92;9.82;;;0.50;99.90;;;;;;4917504;29;20032;-86
2022/02/28 02:43:31;;;;;;;18.33;8.95;;;0.40;99.90;;;;;;4916538;29;20024;-86
2022/02/28 02:45:57;;;;;;;17.40;9.15;;;0.40;99.90;;;;;;4916072;29;20364;-86
2022/02/28 02:48:24;;;;;;;18.40;9.60;;;0.30;99.90;;;;;;4916191;29;20024;-86
2022/02/28 02:50:51;;;;;;;15.82;9.18;;;0.20;99.90;;;;;;4917138;29;20466;-86
2022/02/28 02:53:17;;;;;;;19.83;9.65;;;0.30;99.90;;;;;;4916180;29;20027;-86
2022/02/28 02:55:44;;;;;;;19.65;8.50;;;0.20;99.90;;;;;;4917454;29;20032;-86
2022/02/28 02:58:13;;;;;;;14.80;8.65;;;0.20;99.90;;;;;;4916221;29;20088;-86
2022/02/28 03:00:44;;;;;;;16.60;8.90;;;0.10;99.90;;;;;;4900423;29;20028;-86
2022/02/28 03:03:11;;;;;;;18.95;8.85;;;0.10;99.90;;;;;;4915762;29;20052;-85
2022/02/28 03:05:37;;;;;;;16.48;8.52;;;0.20;99.90;;;;;;4916052;29;20040;-85
2022/02/28 03:08:04;;;;;;;19.17;8.73;;;0.10;99.90;;;;;;4915601;29;20406;-86
2022/02/28 03:10:30;;;;;;;16.15;9.23;;;0.10;99.90;;;;;;4915536;29;20039;-86
2022/02/28 03:12:55;;;;;;;16.27;8.48;;;0.10;99.90;;;;;;4884823;29;20020;-86
2022/02/28 03:15:21;;;;;;;16.30;9.00;;;0.10;99.90;;;;;;4916314;29;20020;-86
2022/02/28 03:17:47;;;;;;;19.05;9.10;;;0.10;99.90;;;;;;4917093;29;20024;-85
2022/02/28 03:20:12;;;;;;;17.75;9.35;;;0.10;99.90;;;;;;4900607;29;20453;-86
2022/02/28 03:22:38;;;;;;;19.55;8.45;;;0.10;99.90;;;;;;4901185;29;20028;-86
2022/02/28 03:25:04;;;;;;;19.77;8.95;;;0.10;99.90;;;;;;4888220;29;20479;-87
2022/02/28 03:27:31;;;;;;;18.40;9.45;;;0.00;99.90;;;;;;4920784;29;20107;-86
2022/02/28 03:29:57;;;;;;;17.83;8.98;;;0.10;99.90;;;;;;4919445;29;20028;-87
2022/02/28 03:32:23;;;;;;;19.65;9.05;;;0.10;99.90;;;;;;4903820;29;20064;-87
2022/02/28 03:34:48;;;;;;;18.27;9.30;;;0.00;99.90;;;;;;4920790;29;20083;-86
2022/02/28 03:37:14;;;;;;;20.13;9.60;;;0.00;99.90;;;;;;4920671;29;20360;-86
2022/02/28 03:39:40;;;;;;;19.52;9.65;;;0.00;99.90;;;;;;4888146;29;20461;-86
2022/02/28 03:42:06;;;;;;;17.52;9.40;;;0.00;99.90;;;;;;4919027;29;20104;-85
2022/02/28 03:44:32;;;;;;;17.48;9.20;;;0.00;99.90;;;;;;4919034;29;20473;-85
2022/02/28 03:46:58;;;;;;;20.27;9.23;;;-0.10;99.90;;;;;;4919116;29;20028;-86
2022/02/28 03:49:23;;;;;;;19.98;9.25;;;-0.10;99.90;;;;;;4919741;29;20100;-86
2022/02/28 03:51:49;;;;;;;18.60;9.23;;;-0.20;99.90;;;;;;4919128;29;20165;-85
2022/02/28 03:54:15;;;;;;;19.33;8.95;;;-0.20;99.90;;;;;;4919942;29;20084;-86
2022/02/28 03:56:43;;;;;;;17.83;9.52;;;-0.20;99.90;;;;;;4920631;29;20037;-86
2022/02/28 03:59:11;;;;;;;17.23;9.05;;;-0.20;99.90;;;;;;4919088;29;20031;-86
2022/02/28 04:01:36;;;;;;;17.13;9.48;;;-0.20;99.90;;;;;;4918919;29;20036;-86
2022/02/28 04:04:04;;;;;;;18.17;9.18;;;-0.20;99.90;;;;;;4919648;29;20540;-86
2022/02/28 04:06:31;;;;;;;16.83;9.10;;;-0.30;99.90;;;;;;4887880;29;20137;-86
2022/02/28 04:09:00;;;;;;;21.17;9.75;;;-0.30;99.90;;;;;;4918781;29;20027;-87
2022/02/28 04:11:28;;;;;;;17.63;8.85;;;-0.40;99.90;;;;;;4919001;29;20039;-86
2022/02/28 04:13:54;;;;;;;16.02;9.02;;;-0.50;99.90;;;;;;4918562;29;20023;-86
2022/02/28 04:16:19;;;;;;;19.98;9.65;;;-0.60;99.90;;;;;;4918521;29;20020;-86
2022/02/28 04:18:45;;;;;;;18.70;9.00;;;-0.60;99.90;;;;;;4918531;29;20075;-86
2022/02/28 04:21:11;;;;;;;17.05;8.82;;;-0.70;99.90;;;;;;4918239;29;20488;-86
2022/02/28 04:23:37;;;;;;;18.60;8.80;;;-0.80;99.90;;;;;;4902839;29;20119;-85
2022/02/28 04:26:03;;;;;;;17.95;8.65;;;-0.80;99.90;;;;;;4902840;29;20024;-85
2022/02/28 04:28:29;;;;;;;18.40;9.30;;;-0.90;99.90;;;;;;4887098;29;20114;-85
2022/02/28 04:30:55;;;;;;;19.23;9.88;;;-1.00;99.90;;;;;;4902584;29;20131;-85
2022/02/28 04:33:20;;;;;;;17.60;9.02;;;-0.90;99.90;;;;;;4919211;29;20024;-85
2022/02/28 04:35:46;;;;;;;20.13;9.10;;;-0.90;99.90;;;;;;4886690;29;20020;-85
2022/02/28 04:38:12;;;;;;;19.75;9.70;;;-1.00;99.90;;;;;;4902508;29;20031;-86
2022/02/28 04:40:38;;;;;;;17.15;8.82;;;-1.10;99.90;;;;;;4919529;29;20036;-86
2022/02/28 04:43:04;;;;;;;17.05;9.13;;;-1.10;99.90;;;;;;4918093;29;20016;-86
2022/02/28 04:45:30;;;;;;;20.83;10.00;;;-1.00;99.90;;;;;;4902513;29;20036;-86
2022/02/28 04:47:56;;;;;;;18.77;9.30;;;-1.10;99.90;;;;;;4902563;29;20032;-84
2022/02/28 04:50:22;;;;;;;17.60;9.38;;;-1.10;99.90;;;;;;4917792;29;20063;-85
2022/02/28 04:52:47;;;;;;;18.15;8.90;;;-1.10;99.90;;;;;;4902143;29;20470;-86
2022/02/28 04:55:13;;;;;;;19.15;10.63;;;-1.10;99.90;;;;;;4902130;29;20040;-85
2022/02/28 04:57:41;;;;;;;18.23;10.35;;;-1.00;99.90;;;;;;4917952;29;20031;-86
2022/02/28 05:00:08;;;;;;;20.88;10.30;;;-1.00;99.90;;;;;;4902016;29;20111;-84
2022/02/28 05:02:34;;;;;;;19.42;8.93;;;-1.10;99.90;;;;;;4901594;29;20043;-84
2022/02/28 05:05:00;;;;;;;18.02;9.40;;;-1.10;99.90;;;;;;4875325;29;20061;-84
2022/02/28 05:07:26;;;;;;;21.13;10.10;;;-1.10;99.90;;;;;;4902700;29;20032;-85
2022/02/28 05:09:52;;;;;;;19.63;10.38;;;-1.20;99.90;;;;;;4918102;29;20393;-85
2022/02/28 05:12:17;;;;;;;18.60;9.90;;;-1.10;99.90;;;;;;4901353;29;20120;-85
2022/02/28 05:14:45;;;;;;;19.48;9.95;;;-1.10;99.90;;;;;;4901514;29;20036;-85
2022/02/28 05:17:11;;;;;;;20.23;9.73;;;-1.10;99.90;;;;;;4917150;29;20032;-85
2022/02/28 05:19:37;;;;;;;20.80;10.25;;;-1.00;99.90;;;;;;4901540;29;20040;-85
2022/02/28 05:22:08;;;;;;;22.60;9.75;;;-0.90;99.90;;;;;;4917422;29;20071;-87
2022/02/28 05:25:27;;;;;;;;;;;;;;;;;;;;;
2022/02/28 05:28:12;;;;;;;22.17;10.00;;;-0.90;99.90;;;;;;4919829;29;20123;-89
2022/02/28 05:30:51;;;;;;;;;;;;;;;;;;;;;
2022/02/28 05:33:31;;;;;;;20.90;10.50;;;-1.00;99.90;;;;;;4919536;29;20034;-89
2022/02/28 05:36:05;;;;;;;20.95;10.63;;;-0.90;99.90;;;;;;4918045;29;20025;-88
2022/02/28 05:38:33;;;;;;;20.67;10.63;;;-0.90;99.90;;;;;;4917326;29;20053;-84
2022/02/28 05:41:42;;;;;;;;;;;;;;;;;;;;;
2022/02/28 05:44:51;;;;;;;20.58;10.57;;;-0.90;99.90;;;;;;4906154;29;20028;-89
2022/02/28 05:47:19;;;;;;;21.08;10.13;;;-1.00;99.90;;;;;;4912520;29;20036;-87
2022/02/28 05:49:45;;;;;;;21.52;10.77;;;-0.90;99.90;;;;;;4916990;29;20164;-87
2022/02/28 05:52:11;;;;;;;19.05;9.98;;;-1.00;99.90;;;;;;4917794;29;20130;-86
2022/02/28 05:54:39;;;;;;;23.08;10.05;;;-1.00;99.90;;;;;;4885634;29;20028;-86
2022/02/28 05:57:05;;;;;;;20.85;10.18;;;-1.00;99.90;;;;;;4918376;29;20080;-86
2022/02/28 05:59:33;;;;;;;18.15;10.48;;;-1.10;99.90;;;;;;4917987;29;20039;-87
2022/02/28 06:02:01;;;;;;;19.83;10.77;;;-1.00;99.90;;;;;;4916426;29;20024;-86
2022/02/28 06:04:29;;;;;;;19.67;11.27;;;-1.00;99.90;;;;;;4900683;29;20113;-85
2022/02/28 06:06:57;;;;;;;21.70;10.48;;;-1.00;99.90;;;;;;4917602;29;20401;-85
2022/02/28 06:09:23;;;;;;;22.40;10.57;;;-1.10;99.90;;;;;;4916132;29;20127;-85
2022/02/28 06:11:49;;;;;;;21.40;10.50;;;-1.00;99.90;;;;;;4917779;29;20111;-85
2022/02/28 06:14:20;;;;;;;22.17;10.65;;;-1.10;99.90;;;;;;4917393;29;20425;-85
2022/02/28 06:16:46;;;;;;;18.70;10.30;;;-1.00;99.90;;;;;;4918056;29;20024;-85
2022/02/28 06:19:12;;;;;;;20.58;10.93;;;-1.00;99.90;;;;;;4916880;29;20025;-85
2022/02/28 06:21:37;;;;;;;21.08;10.98;;;-1.00;99.90;;;;;;4917174;29;20446;-86
2022/02/28 06:24:03;;;;;;;21.20;9.98;;;-1.00;99.90;;;;;;4916905;29;20038;-85
2022/02/28 06:26:29;;;;;;;21.35;10.30;;;-1.10;99.90;;;;;;4915769;29;20016;-86
2022/02/28 06:28:55;;;;;;;20.85;11.05;;;-1.00;99.90;;;;;;4916025;29;20056;-86
2022/02/28 06:31:21;;;;;;;22.42;11.88;;;-1.00;99.90;;;;;;4915801;29;20029;-86
2022/02/28 06:33:47;;;;;;;21.73;11.20;;;-1.00;99.90;;;;;;4917722;29;20036;-86
2022/02/28 06:36:18;;;;;;;21.05;10.57;;;-1.00;99.90;;;;;;4915701;29;20059;-85
2022/02/28 06:38:44;;;;;;;21.10;11.20;;;-1.00;99.90;;;;;;4916771;29;20096;-86
2022/02/28 06:41:12;;;;;;;19.85;10.45;;;-0.80;99.90;;;;;;4915760;29;20445;-85
2022/02/28 06:43:38;;;;;;;20.55;10.98;;;-0.90;99.90;;;;;;4916763;29;20040;-85
2022/02/28 06:46:06;;;;;;;22.15;11.18;;;-0.90;99.90;;;;;;4915618;29;20024;-85
2022/02/28 06:48:32;;;;;;;22.83;11.38;;;-0.90;99.90;;;;;;4915970;29;20034;-85
2022/02/28 06:50:58;;;;;;;23.85;11.95;;;-0.90;99.90;;;;;;4916952;29;20040;-85
2022/02/28 06:53:28;;;;;;;21.40;10.73;;;-0.80;99.90;;;;;;4915664;29;20401;-85
2022/02/28 06:55:54;;;;;;;23.02;11.10;;;-0.80;99.90;;;;;;4915719;29;20027;-83
2022/02/28 06:58:26;;;;;;;19.67;11.27;;;-0.80;99.90;;;;;;4916460;29;20335;-83
2022/02/28 07:00:53;;;;;;;22.65;11.23;;;-0.80;99.90;;;;;;4920740;29;20028;-84
2022/02/28 07:03:21;;;;;;;22.50;11.80;;;-0.80;99.90;;;;;;4920112;29;20037;-83
2022/02/28 07:05:52;;;;;;;22.08;10.93;;;-0.80;99.90;;;;;;4887455;29;20052;-83
2022/02/28 07:08:21;;;;;;;24.27;11.57;;;-0.80;99.90;;;;;;4918808;29;20028;-81
2022/02/28 07:10:49;;;;;;;22.20;11.30;;;-0.80;99.90;;;;;;4903820;29;20036;-81
2022/02/28 07:13:25;;;;;;;25.05;11.63;;;-0.70;99.90;;;;;;4919032;29;20356;-83
2022/02/28 07:15:54;;;;;;;21.95;11.07;;;-0.70;99.90;;;;;;4903232;29;20032;-84
2022/02/28 07:18:23;;;;;;;22.50;11.02;;;-0.70;99.90;;;;;;4919249;29;20039;-83
2022/02/28 07:20:49;;;;;;;20.02;10.63;;;-0.60;99.90;;;;;;4888593;29;20036;-84
2022/02/28 07:23:17;;;;;;;25.30;11.27;;;-0.60;99.90;;;;;;4920002;29;20034;-84
2022/02/28 07:25:43;;;;;;;21.27;11.02;;;-0.60;99.90;;;;;;4903281;29;20032;-83
2022/02/28 07:28:09;;;;;;;21.08;11.77;;;-0.60;99.90;;;;;;4919219;29;20116;-82
2022/02/28 07:30:37;;;;;;;19.63;11.38;;;-0.50;99.90;;;;;;4918828;29;20036;-84
2022/02/28 07:33:03;;;;;;;18.80;10.73;;;-0.50;99.90;;;;;;4919294;29;20064;-84
2022/02/28 07:35:29;;;;;;;22.73;10.82;;;-0.50;99.90;;;;;;4918213;29;20032;-83
2022/02/28 07:37:55;;;;;;;25.70;11.40;;;-0.50;99.90;;;;;;4903210;29;20096;-83
2022/02/28 07:40:20;;;;;;;21.67;10.98;;;-0.30;99.90;;;;;;4888381;29;20036;-83
2022/02/28 07:42:49;;;;;;;20.63;10.63;;;-0.30;99.90;;;;;;4903018;29;20032;-83
2022/02/28 07:45:17;;;;;;;21.40;10.88;;;-0.10;99.90;;;;;;4888078;29;20442;-82
2022/02/28 07:47:43;;;;;;;24.10;11.15;;;-0.10;99.90;;;;;;4920377;29;20099;-82
2022/02/28 07:50:09;;;;;;;22.05;11.23;;;0.00;99.90;;;;;;4919131;29;20031;-82
2022/02/28 07:52:35;;;;;;;20.15;10.48;;;0.10;99.90;;;;;;4903152;29;20111;-80
2022/02/28 07:55:01;;;;;;;22.25;11.55;;;0.20;99.90;;;;;;4903129;29;20115;-82
2022/02/28 07:57:27;;;;;;;23.73;10.98;;;0.30;99.90;;;;;;4887537;29;20119;-82
2022/02/28 07:59:52;;;;;;;19.05;10.85;;;0.40;99.90;;;;;;4919022;29;20039;-83
2022/02/28 08:02:18;;;;;;;21.30;10.95;;;0.50;99.90;;;;;;4918463;29;20040;-82
2022/02/28 08:04:43;;;;;;;22.10;10.32;;;0.50;99.90;;;;;;4919111;29;20048;-82
2022/02/28 08:07:09;;;;;;;19.50;10.60;;;0.70;99.90;;;;;;4886910;29;20078;-83
2022/02/28 08:09:35;;;;;;;19.85;10.95;;;0.70;99.90;;;;;;4901823;29;20116;-84
2022/02/28 08:12:01;;;;;;;18.40;10.25;;;0.90;99.90;;;;;;4902589;29;20039;-83
2022/02/28 08:14:27;;;;;;;21.13;10.05;;;0.90;99.90;;;;;;4918695;29;20087;-83
2022/02/28 08:16:53;;;;;;;17.63;10.07;;;1.00;99.90;;;;;;4918567;29;20086;-83
2022/02/28 08:19:18;;;;;;;20.38;10.30;;;1.10;99.90;;;;;;4919283;29;20032;-82
2022/02/28 08:21:45;;;;;;;19.38;10.90;;;1.20;99.90;;;;;;4887294;29;20035;-84
2022/02/28 08:24:11;;;;;;;21.10;11.05;;;1.30;99.90;;;;;;4918056;29;20119;-82
2022/02/28 08:26:36;;;;;;;17.13;10.07;;;1.40;99.90;;;;;;4918028;29;20433;-83
2022/02/28 08:29:03;;;;;;;19.45;11.00;;;1.40;99.90;;;;;;4903196;29;20216;-77
2022/02/28 08:31:29;;;;;;;20.70;11.10;;;1.40;99.90;;;;;;4902612;29;20048;-83
2022/02/28 08:33:55;;;;;;;19.98;10.50;;;1.50;99.90;;;;;;4918203;29;20065;-84
2022/02/28 08:36:20;;;;;;;23.02;10.43;;;1.60;99.90;;;;;;4918763;29;20020;-84
2022/02/28 08:38:46;;;;;;;19.10;10.43;;;1.80;99.90;;;;;;4918555;29;20051;-84
2022/02/28 08:41:18;;;;;;;20.23;11.10;;;1.80;99.90;;;;;;4902970;29;20032;-83
2022/02/28 08:43:44;;;;;;;21.83;10.23;;;1.90;99.90;;;;;;4918218;29;20115;-83
2022/02/28 08:46:13;;;;;;;20.52;10.70;;;1.90;99.90;;;;;;4918380;29;20054;-86
2022/02/28 08:48:38;;;;;;;21.15;10.70;;;2.00;99.90;;;;;;4912999;29;20035;-83
2022/02/28 08:51:04;;;;;;;20.02;11.07;;;2.10;99.90;;;;;;4906103;29;20029;-83
2022/02/28 08:53:30;;;;;;;23.00;10.93;;;2.10;99.90;;;;;;4894310;29;20103;-84
2022/02/28 08:55:56;;;;;;;19.63;10.60;;;2.30;99.90;;;;;;4896492;29;20028;-84
2022/02/28 08:58:23;;;;;;;19.65;10.52;;;2.40;99.90;;;;;;4930637;29;20020;-85
2022/02/28 09:00:49;;;;;;;18.88;10.35;;;2.50;99.90;;;;;;4898720;29;20020;-84
2022/02/28 09:03:19;;;;;;;20.40;10.70;;;2.60;99.90;;;;;;4913850;29;20106;-84
2022/02/28 09:05:45;;;;;;;19.83;10.85;;;2.70;99.90;;;;;;4913718;29;20056;-84
2022/02/28 09:08:12;;;;;;;19.33;10.23;;;2.90;99.90;;;;;;4928522;29;20020;-83
2022/02/28 09:10:41;;;;;;;18.95;11.02;;;3.00;99.90;;;;;;4898136;29;20032;-84
2022/02/28 09:13:12;;;;;;;17.15;10.15;;;3.20;99.90;;;;;;4912745;29;20036;-82
2022/02/28 09:15:45;;;;;;;19.33;10.32;;;3.30;99.90;;;;;;4928755;29;20024;-82
2022/02/28 09:18:15;;;;;;;22.90;12.10;;;3.50;99.90;;;;;;4891453;29;20480;-83
2022/02/28 09:20:43;;;;;;;17.02;9.80;;;3.70;99.90;;;;;;4923451;29;20338;-83
2022/02/28 09:23:11;;;;;;;18.38;9.95;;;3.90;99.90;;;;;;4920822;29;20113;-84
2022/02/28 09:25:38;;;;;;;18.58;10.23;;;4.10;99.90;;;;;;4919796;29;20048;-84
2022/02/28 09:28:04;;;;;;;18.25;9.75;;;4.20;99.90;;;;;;4886178;29;20122;-85
2022/02/28 09:30:32;;;;;;;18.42;9.90;;;4.40;99.90;;;;;;4917639;29;20028;-84
2022/02/28 09:33:01;;;;;;;17.23;9.52;;;4.90;99.90;;;;;;4917253;29;20099;-85
2022/02/28 09:35:27;;;;;;;19.15;10.00;;;5.20;99.90;;;;;;4918387;29;20076;-84
2022/02/28 09:37:54;;;;;;;18.27;9.82;;;5.50;99.90;;;;;;4916699;29;20028;-83
2022/02/28 09:40:28;;;;;;;18.00;9.98;;;5.90;99.90;;;;;;4900995;29;20028;-83
2022/02/28 09:42:58;;;;;;;20.70;10.10;;;6.30;99.90;;;;;;4916891;29;20035;-81
2022/02/28 09:45:25;;;;;;;18.90;9.98;;;6.50;99.90;;;;;;4916425;29;20406;-83
2022/02/28 09:47:53;;;;;;;17.63;10.35;;;6.90;99.90;;;;;;4916578;29;20132;-84
2022/02/28 09:51:59;;;;;;;18.70;9.82;;;7.60;99.90;;;;;;5104605;27;1304927;-82
2022/02/28 09:54:32;;;;;;;17.33;9.93;;;7.60;99.90;;;;;;5121166;28;20028;-84
2022/02/28 09:57:02;;;;;;;17.58;10.00;;;7.90;99.90;;;;;;5091996;28;20026;-83
2022/02/28 09:59:40;;;;;;;18.77;9.82;;;8.40;99.90;;;;;;5131077;27;20023;-83
2022/02/28 10:02:06;;;;;;;17.15;9.70;;;9.20;99.90;;;;;;5120373;28;20028;-83
2022/02/28 10:04:34;;;;;;;16.42;9.80;;;10.80;99.90;;;;;;5129937;28;20024;-83
2022/02/28 10:07:00;;;;;;;16.77;9.40;;;12.40;87.00;;;;;;5130576;28;20131;-82
2022/02/28 10:09:27;;;;;;;15.23;9.18;;;13.80;62.80;;;;;;5131496;28;20495;-81
2022/02/28 10:11:53;;;;;;;14.88;8.80;;;14.80;55.00;;;;;;5124541;28;20032;-82
2022/02/28 10:14:20;;;;;;;14.68;9.00;;;15.60;51.30;;;;;;5094053;28;20015;-84
2022/02/28 10:16:58;;;;;;;14.48;9.02;;;16.40;50.80;;;;;;5091951;28;20032;-84
2022/02/28 10:19:29;;;;;;;14.73;8.75;;;17.00;47.20;;;;;;5130551;28;20023;-86
2022/02/28 10:22:18;;;;;;;12.43;8.25;;;18.00;46.10;;;;;;5122532;28;20050;-83
2022/02/28 10:24:58;;;;;;;13.93;8.55;;;18.60;43.20;;;;;;5129963;28;20168;-84
2022/02/28 10:27:27;;;;;;;13.98;9.05;;;19.00;43.10;;;;;;5116475;28;20027;-85
2022/02/28 10:30:02;;;;;;;13.75;8.15;;;19.50;41.90;;;;;;5127551;28;20119;-85
2022/02/28 10:32:51;;;;;;;18.75;9.30;;;19.40;40.70;;;;;;5130182;28;20024;-84
2022/02/28 10:38:03;;;;;;;14.57;9.43;;;19.70;38.60;;;;;;5125327;28;20034;-82
2022/02/28 10:40:32;;;;;;;12.40;8.40;;;20.30;39.00;;;;;;5127977;27;20031;-81
2022/02/28 10:42:58;;;;;;;14.15;8.00;;;20.40;37.80;;;;;;5125318;28;20019;-82
2022/02/28 10:45:25;;;;;;;13.30;8.10;;;20.90;37.30;;;;;;5091680;28;20494;-81
2022/02/28 10:47:53;;;;;;;13.77;8.93;;;21.10;36.50;;;;;;5128258;28;20440;-81
2022/02/28 10:50:40;;;;;;;13.85;8.55;;;21.00;34.60;;;;;;5125452;28;20044;-81
2022/02/28 10:53:18;;;;;;;13.57;8.23;;;21.50;36.30;;;;;;5128561;28;20031;-81
2022/02/28 10:55:45;;;;;;;13.10;8.32;;;21.80;35.20;;;;;;5127199;28;20031;-83
2022/02/28 10:58:16;;;;;;;12.43;8.32;;;21.10;33.10;;;;;;5124209;28;20093;-83
2022/02/28 11:00:54;;;;;;;11.77;8.37;;;21.50;34.40;;;;;;5118598;28;20142;-83
2022/02/28 11:03:20;;;;;;;13.25;8.55;;;21.10;34.00;;;;;;5109325;28;20034;-86
2022/02/28 11:05:53;;;;;;;12.00;7.53;;;21.20;34.10;;;;;;5112866;28;20034;-84
2022/02/28 11:08:24;;;;;;;15.05;8.30;;;21.70;35.20;;;;;;5108943;28;20167;-82
2022/02/28 11:10:51;;;;;;;12.77;8.10;;;21.70;33.90;;;;;;5107158;28;20057;-81
2022/02/28 11:13:17;;;;;;;13.25;8.65;;;22.00;33.70;;;;;;5110206;28;20471;-81
2022/02/28 11:15:43;;;;;;;15.30;8.63;;;22.40;33.50;;;;;;5107490;28;20045;-82
2022/02/28 11:18:12;;;;;;;14.88;8.63;;;22.00;33.50;;;;;;5108804;28;20024;-84
2022/02/28 11:20:39;;;;;;;10.95;7.63;;;22.60;33.20;;;;;;5083443;28;20044;-83
2022/02/28 11:23:05;;;;;;;12.95;8.20;;;22.20;33.50;;;;;;5089116;28;20063;-80
2022/02/28 11:25:31;;;;;;;11.30;7.90;;;22.70;33.40;;;;;;5105592;28;20055;-81
2022/02/28 11:27:59;;;;;;;13.70;8.35;;;22.30;30.00;;;;;;5105735;28;21255;-81
2022/02/28 11:30:28;;;;;;;14.98;8.48;;;22.80;32.50;;;;;;5107509;28;20039;-80
2022/02/28 11:32:57;;;;;;;25.98;9.65;;;23.20;32.60;;;;;;5095384;28;20031;-82
2022/02/28 11:35:37;;;;;;;13.55;7.95;;;23.20;31.20;;;;;;5101253;28;20028;-80
2022/02/28 11:38:17;;;;;;;14.90;8.60;;;22.30;32.50;;;;;;5109963;28;20054;-82
2022/02/28 11:40:50;;;;;;;14.60;9.23;;;23.40;33.60;;;;;;5103534;28;20118;-84
2022/02/28 11:43:22;;;;;;;19.92;9.75;;;23.60;32.40;;;;;;5104688;28;20031;-84
2022/02/28 11:45:52;;;;;;;14.45;9.30;;;22.40;30.30;;;;;;5106497;28;20530;-84
2022/02/28 11:48:42;;;;;;;14.73;8.43;;;23.30;32.50;;;;;;5098865;28;20024;-83
2022/02/28 11:51:28;;;;;;;14.10;9.30;;;23.10;30.50;;;;;;5102270;28;20136;-84
2022/02/28 11:54:15;;;;;;;14.65;8.90;;;23.80;32.20;;;;;;5105493;28;20024;-84
2022/02/28 11:56:41;;;;;;;13.35;8.98;;;23.80;32.00;;;;;;5106581;28;20024;-84
2022/02/28 11:59:15;;;;;;;13.27;9.20;;;24.20;30.70;;;;;;5105390;28;20026;-84
2022/02/28 12:02:27;;;;;;;;;;;;;;;;;;;;;
2022/02/28 12:05:22;;;;;;;13.20;8.75;;;24.60;30.90;;;;;;5105394;28;20036;-83
2022/02/28 12:08:00;;;;;;;12.32;8.93;;;24.60;30.80;;;;;;5089541;28;20043;-84
2022/02/28 12:10:56;;;;;;;12.07;7.95;;;24.90;30.30;;;;;;5106376;28;20109;-84
2022/02/28 12:13:37;;;;;;;13.25;8.65;;;24.80;29.60;;;;;;5107019;28;20020;-84
2022/02/28 12:19:37;;;;;;;12.88;8.85;;;24.70;29.00;;;;;;5108603;28;20034;-84
2022/02/28 12:22:09;;;;;;;13.50;9.20;;;23.80;29.80;;;;;;5109803;28;20085;-84
2022/02/28 12:25:06;;;;;;;;;;;;;;;;;;;;;
2022/02/28 12:27:42;;;;;;;13.05;8.50;;;22.20;27.90;;;;;;5108671;28;20042;-84
2022/02/28 12:30:40;;;;;;;14.50;9.30;;;23.10;30.00;;;;;;5088653;28;20447;-85
2022/02/28 12:33:08;;;;;;;13.10;8.90;;;24.40;30.50;;;;;;5104177;28;20028;-84
2022/02/28 12:35:58;;;;;;;13.90;8.93;;;24.60;30.10;;;;;;5107492;28;20104;-84
2022/02/28 12:38:29;;;;;;;14.75;8.45;;;24.70;28.80;;;;;;5105588;28;20404;-83
2022/02/28 12:41:02;;;;;;;;;;;24.30;29.60;;;;;;5102120;28;20039;-83
2022/02/28 12:43:29;;;;;;;13.07;8.55;;;24.40;29.30;;;;;;5105558;28;19922;-86
2022/02/28 12:46:29;;;;;;;12.23;8.57;;;23.90;28.80;;;;;;5103741;28;20085;-84
2022/02/28 12:48:56;;;;;;;15.18;9.18;;;23.90;28.50;;;;;;5105268;28;20028;-83
2022/02/28 12:51:37;;;;;;;13.85;8.98;;;24.10;29.70;;;;;;5105656;28;20040;-84
2022/02/28 12:54:10;;;;;;;14.77;8.95;;;24.00;28.60;;;;;;5103791;28;20483;-84
2022/02/28 12:57:02;;;;;;;13.40;9.20;;;24.00;29.00;;;;;;5103590;28;20036;-85
2022/02/28 12:59:56;;;;;;;12.30;8.45;;;24.00;29.70;;;;;;5105576;28;20084;-88
2022/02/28 13:03:16;;;;;;;14.65;8.45;;;23.40;28.30;;;;;;5103480;28;20032;-85
2022/02/28 13:09:25;;;;;;;13.75;8.40;;;23.70;29.00;;;;;;5034449;28;20035;-84
2022/02/28 13:12:03;;;;;;;12.52;8.80;;;23.80;29.10;;;;;;5099971;28;20479;-84
2022/02/28 13:14:32;;;;;;;13.30;8.95;;;23.70;29.40;;;;;;5106296;28;20058;-84
2022/02/28 13:16:58;;;;;;;12.40;8.30;;;23.70;29.60;;;;;;5104122;28;20023;-84